Time;durP1;ratioP1;P1;durP2;ratioP2;P2;SDS_P1;SDS_P2;PMS_P1;PMS_P2;Temp;Humidity;BMP_temperature;BMP_pressure;BME280_temperature;BME280_humidity;BME280_pressure;Samples;Min_cycle;Max_cycle;Signal;HPM_P1;HPM_P2
2022/12/29 00:01:55;;;;;;;16.88;3.60;;;9.20;99.90;;;;;;5046084;28;20141;-50
2022/12/29 00:04:21;;;;;;;27.92;4.32;;;9.20;99.90;;;;;;5043540;28;20087;-54
2022/12/29 00:06:48;;;;;;;23.80;4.10;;;9.20;99.90;;;;;;5043089;28;20032;-55
2022/12/29 00:09:15;;;;;;;23.08;4.57;;;9.30;99.90;;;;;;5032343;28;20104;-52
2022/12/29 00:11:42;;;;;;;26.42;4.97;;;9.30;99.90;;;;;;5032400;28;20044;-52
2022/12/29 00:16:54;;;;;;;26.58;4.28;;;9.30;99.90;;;;;;5051646;28;20155;-53
2022/12/29 00:36:02;;;;;;;27.17;4.07;;;9.20;99.90;;;;;;5034466;28;20041;-53
2022/12/29 00:44:06;;;;;;;18.02;3.80;;;9.20;99.90;;;;;;5039253;28;20060;-52
2022/12/29 00:46:33;;;;;;;23.00;3.75;;;9.20;99.90;;;;;;5051238;28;20107;-50
2022/12/29 00:51:45;;;;;;;21.38;4.55;;;9.10;99.90;;;;;;5041113;28;20471;-52
2022/12/29 00:54:11;;;;;;;20.52;3.85;;;9.10;99.90;;;;;;5033030;28;20053;-49
2022/12/29 00:56:39;;;;;;;30.50;5.93;;;9.10;99.90;;;;;;5033229;28;20488;-54
2022/12/29 00:59:06;;;;;;;19.98;3.35;;;9.00;99.90;;;;;;5036155;28;20045;-50
2022/12/29 01:01:33;;;;;;;23.88;3.63;;;9.00;99.90;;;;;;5032202;28;20064;-51
2022/12/29 01:04:00;;;;;;;20.90;4.15;;;9.00;99.90;;;;;;5034375;28;20033;-50
2022/12/29 01:06:30;;;;;;;27.80;4.47;;;9.00;99.90;;;;;;5048005;28;20040;-54
2022/12/29 01:11:42;;;;;;;26.13;4.22;;;9.00;99.90;;;;;;5037000;28;20463;-54
2022/12/29 01:14:09;;;;;;;24.95;4.53;;;8.90;99.90;;;;;;5036251;28;20045;-54
2022/12/29 01:16:36;;;;;;;25.13;4.28;;;9.00;99.90;;;;;;5040937;28;20040;-50
2022/12/29 01:19:03;;;;;;;20.00;4.25;;;8.90;99.90;;;;;;5037995;28;20041;-53
2022/12/29 01:21:30;;;;;;;25.27;4.00;;;8.90;99.90;;;;;;5048707;28;20041;-52
2022/12/29 01:23:56;;;;;;;24.27;4.35;;;8.90;99.90;;;;;;5036838;28;20511;-51
2022/12/29 01:26:23;;;;;;;25.20;4.82;;;8.90;99.90;;;;;;5039076;28;20065;-51
2022/12/29 01:28:51;;;;;;;28.67;4.15;;;8.90;99.90;;;;;;5048883;28;20041;-49
2022/12/29 01:31:17;;;;;;;24.40;4.05;;;8.80;99.90;;;;;;5045417;28;20060;-51
2022/12/29 01:33:44;;;;;;;30.10;4.70;;;8.80;99.90;;;;;;5044026;28;20045;-53
2022/12/29 01:36:11;;;;;;;28.05;4.90;;;8.80;99.90;;;;;;5039249;28;20049;-54
2022/12/29 01:38:38;;;;;;;25.05;4.68;;;8.80;99.90;;;;;;5044806;28;20065;-52
2022/12/29 01:41:04;;;;;;;24.40;4.45;;;8.80;99.90;;;;;;5035502;28;20054;-48
2022/12/29 01:43:31;;;;;;;26.05;4.47;;;8.80;99.90;;;;;;5041654;28;20037;-51
2022/12/29 01:45:58;;;;;;;30.02;4.68;;;8.80;99.90;;;;;;5055369;28;20041;-48
2022/12/29 01:48:25;;;;;;;24.17;3.90;;;8.80;99.90;;;;;;5041066;28;20041;-47
2022/12/29 01:50:51;;;;;;;24.60;4.18;;;8.70;99.90;;;;;;5050242;28;20049;-50
2022/12/29 01:53:18;;;;;;;21.20;4.25;;;8.70;99.90;;;;;;5049970;28;20049;-53
2022/12/29 01:55:45;;;;;;;27.63;4.05;;;8.60;99.90;;;;;;5044760;28;20088;-49
2022/12/29 01:58:12;;;;;;;27.88;4.72;;;8.60;99.90;;;;;;5040294;28;20080;-53
2022/12/29 02:00:38;;;;;;;29.27;4.63;;;8.60;99.90;;;;;;5041902;28;20126;-50
2022/12/29 02:03:05;;;;;;;23.23;4.40;;;8.50;99.90;;;;;;5035240;28;20076;-51
2022/12/29 02:05:33;;;;;;;29.45;4.70;;;8.60;99.90;;;;;;5044641;28;20033;-53
2022/12/29 02:08:00;;;;;;;22.15;3.65;;;8.50;99.90;;;;;;5050350;28;20037;-51
2022/12/29 02:10:26;;;;;;;26.70;4.70;;;8.50;99.90;;;;;;5036130;28;20037;-49
2022/12/29 02:12:55;;;;;;;17.92;3.65;;;8.60;99.90;;;;;;5045637;28;20065;-50
2022/12/29 02:15:22;;;;;;;26.08;3.80;;;8.50;99.90;;;;;;5044021;28;20493;-54
2022/12/29 02:17:49;;;;;;;25.30;3.63;;;8.50;99.90;;;;;;5035455;28;20126;-52
2022/12/29 02:20:16;;;;;;;22.90;4.03;;;8.50;99.90;;;;;;5034540;28;20045;-54
2022/12/29 02:22:43;;;;;;;22.25;4.28;;;8.50;99.90;;;;;;5034823;28;20045;-50
2022/12/29 02:25:10;;;;;;;30.10;4.95;;;8.50;99.90;;;;;;5040716;28;20072;-53
2022/12/29 02:27:37;;;;;;;24.10;4.38;;;8.50;99.90;;;;;;5033835;28;20049;-50
2022/12/29 02:30:04;;;;;;;23.73;4.70;;;8.50;99.90;;;;;;5036586;28;20038;-52
2022/12/29 02:32:31;;;;;;;21.77;5.18;;;8.50;99.90;;;;;;5035177;28;20053;-54
2022/12/29 02:34:59;;;;;;;30.95;4.40;;;8.50;99.90;;;;;;5038896;28;20115;-52
2022/12/29 02:37:26;;;;;;;28.23;4.80;;;8.50;99.90;;;;;;5047595;28;20071;-53
2022/12/29 02:39:53;;;;;;;28.25;5.43;;;8.50;99.90;;;;;;5034949;28;20077;-51
2022/12/29 02:42:20;;;;;;;26.67;4.95;;;8.50;99.90;;;;;;5042664;28;20051;-51
2022/12/29 02:44:47;;;;;;;28.40;5.20;;;8.50;99.90;;;;;;5043172;28;20041;-49
2022/12/29 02:47:13;;;;;;;32.38;4.97;;;8.50;99.90;;;;;;5033487;28;20071;-53
2022/12/29 02:49:43;;;;;;;24.83;5.50;;;8.50;99.90;;;;;;5034066;28;20072;-51
2022/12/29 02:52:09;;;;;;;28.20;4.90;;;8.60;99.90;;;;;;5036589;28;20045;-50
2022/12/29 02:54:43;;;;;;;26.60;5.53;;;8.70;99.90;;;;;;5037471;28;20042;-52
2022/12/29 02:57:11;;;;;;;32.05;5.68;;;8.70;99.90;;;;;;5047899;28;20041;-51
2022/12/29 02:59:39;;;;;;;25.30;4.53;;;8.70;99.90;;;;;;5051352;28;20044;-51
2022/12/29 03:02:19;;;;;;;28.00;5.55;;;8.70;99.90;;;;;;5051614;28;20044;-52
2022/12/29 03:04:48;;;;;;;28.65;5.40;;;8.70;99.90;;;;;;5036344;28;20397;-51
2022/12/29 03:07:15;;;;;;;28.38;5.03;;;8.70;99.90;;;;;;5042714;28;20111;-47
2022/12/29 03:09:42;;;;;;;33.88;6.68;;;8.70;99.90;;;;;;5049509;28;20071;-54
2022/12/29 03:12:09;;;;;;;32.05;4.80;;;8.60;99.90;;;;;;5033132;28;20049;-52
2022/12/29 03:17:23;;;;;;;22.83;4.90;;;8.60;99.90;;;;;;5039037;28;20048;-50
2022/12/29 03:19:51;;;;;;;32.75;5.32;;;8.70;99.90;;;;;;5036144;28;20496;-49
2022/12/29 03:22:27;;;;;;;25.77;4.65;;;8.60;99.90;;;;;;5034339;28;20053;-49
2022/12/29 03:24:59;;;;;;;29.02;6.03;;;8.70;99.90;;;;;;5017539;28;20056;-46
2022/12/29 03:27:26;;;;;;;26.25;5.75;;;8.70;99.90;;;;;;5034394;28;20060;-49
2022/12/29 03:29:53;;;;;;;33.08;7.05;;;8.80;99.90;;;;;;5033784;28;20511;-50
2022/12/29 03:32:20;;;;;;;37.90;6.57;;;8.80;99.90;;;;;;5034537;28;20042;-52
2022/12/29 03:34:47;;;;;;;27.27;5.28;;;8.90;99.90;;;;;;5048937;28;20072;-51
2022/12/29 03:37:14;;;;;;;28.02;5.70;;;9.00;99.90;;;;;;5045777;28;20040;-50
2022/12/29 03:39:41;;;;;;;29.95;5.55;;;9.00;99.90;;;;;;5035077;28;20414;-52
2022/12/29 03:42:09;;;;;;;28.35;4.97;;;9.10;99.90;;;;;;5052442;28;20052;-49
2022/12/29 03:44:36;;;;;;;26.73;5.57;;;9.10;99.90;;;;;;5051888;28;20107;-50
2022/12/29 03:47:03;;;;;;;30.80;5.88;;;9.10;99.90;;;;;;5035433;28;20045;-48
2022/12/29 03:49:30;;;;;;;26.00;4.90;;;9.20;99.90;;;;;;5038743;28;20076;-53
2022/12/29 03:51:57;;;;;;;27.65;5.53;;;9.20;99.90;;;;;;5049934;28;20041;-50
2022/12/29 03:54:24;;;;;;;25.55;5.38;;;9.20;99.90;;;;;;5041312;28;20052;-49
2022/12/29 03:56:52;;;;;;;27.00;5.28;;;9.20;99.90;;;;;;5038787;28;20128;-53
2022/12/29 03:59:29;;;;;;;30.48;6.25;;;9.20;99.90;;;;;;5048439;28;20072;-52
2022/12/29 04:01:56;;;;;;;25.75;5.25;;;9.20;99.90;;;;;;5042655;28;20475;-51
2022/12/29 04:04:23;;;;;;;21.80;4.53;;;9.20;99.90;;;;;;5046424;28;20402;-52
2022/12/29 04:06:50;;;;;;;22.00;4.28;;;9.30;99.90;;;;;;5041741;28;20037;-49
2022/12/29 04:09:17;;;;;;;23.95;4.13;;;9.30;99.90;;;;;;5038238;28;20131;-52
2022/12/29 04:11:47;;;;;;;24.30;4.20;;;9.30;99.90;;;;;;5044484;28;20444;-51
2022/12/29 04:14:13;;;;;;;23.42;4.22;;;9.30;99.90;;;;;;5047204;28;20053;-52
2022/12/29 04:16:40;;;;;;;27.55;4.93;;;9.40;99.90;;;;;;5039452;28;20049;-50
2022/12/29 04:19:07;;;;;;;30.23;6.38;;;9.40;99.90;;;;;;5034568;28;20072;-52
2022/12/29 04:21:35;;;;;;;32.25;6.05;;;9.40;99.90;;;;;;5039667;28;20067;-54
2022/12/29 04:24:06;;;;;;;37.45;5.65;;;9.30;99.90;;;;;;5031743;28;20080;-52
2022/12/29 04:26:37;;;;;;;25.63;4.80;;;9.30;99.90;;;;;;5038607;28;20380;-50
2022/12/29 04:29:22;;;;;;;28.00;5.17;;;9.20;99.90;;;;;;5035188;28;20052;-50
2022/12/29 04:32:08;;;;;;;23.55;4.40;;;9.20;99.90;;;;;;5042847;28;20118;-52
2022/12/29 04:34:39;;;;;;;27.77;4.70;;;9.10;99.90;;;;;;5045647;28;20143;-49
2022/12/29 04:37:06;;;;;;;28.83;4.47;;;9.10;99.90;;;;;;5040322;28;20041;-47
2022/12/29 04:39:34;;;;;;;26.40;6.03;;;9.00;99.90;;;;;;5033934;28;20061;-50
2022/12/29 04:42:02;;;;;;;26.98;5.57;;;9.00;99.90;;;;;;5039942;28;20045;-49
2022/12/29 04:44:29;;;;;;;21.30;4.80;;;9.00;99.90;;;;;;5044175;28;20067;-54
2022/12/29 04:47:14;;;;;;;29.17;6.03;;;8.90;99.90;;;;;;5033198;28;20384;-51
2022/12/29 04:50:10;;;;;;;33.08;5.55;;;8.90;99.90;;;;;;5035671;28;20516;-51
2022/12/29 04:52:49;;;;;;;35.38;5.93;;;9.00;99.90;;;;;;5039917;28;20049;-53
2022/12/29 04:55:16;;;;;;;33.67;5.60;;;9.00;99.90;;;;;;5037370;28;20046;-54
2022/12/29 04:57:44;;;;;;;22.73;4.95;;;9.00;99.90;;;;;;5038009;28;20044;-53
2022/12/29 05:00:15;;;;;;;25.85;5.03;;;9.00;99.90;;;;;;5032174;28;20061;-47
2022/12/29 05:02:42;;;;;;;33.72;5.80;;;9.00;99.90;;;;;;5033555;28;20096;-54
2022/12/29 05:05:09;;;;;;;32.05;5.97;;;9.00;99.90;;;;;;5042647;28;20042;-55
2022/12/29 05:07:40;;;;;;;21.70;4.82;;;9.00;99.90;;;;;;5046396;28;20065;-52
2022/12/29 05:10:07;;;;;;;27.30;5.40;;;9.00;99.90;;;;;;5044666;28;20080;-55
2022/12/29 05:12:34;;;;;;;29.17;4.60;;;9.00;99.90;;;;;;5034560;28;20140;-50
2022/12/29 05:15:02;;;;;;;27.25;4.78;;;9.00;99.90;;;;;;5040756;28;20508;-53
2022/12/29 05:17:30;;;;;;;27.75;5.22;;;9.10;99.90;;;;;;5039246;28;20566;-50
2022/12/29 05:19:56;;;;;;;29.02;4.32;;;9.10;99.90;;;;;;5049102;28;20498;-53
2022/12/29 05:22:24;;;;;;;23.27;4.32;;;9.00;99.90;;;;;;5038716;28;20080;-51
2022/12/29 05:24:53;;;;;;;23.50;4.93;;;9.00;99.90;;;;;;5032063;28;20043;-52
2022/12/29 05:27:20;;;;;;;21.20;3.75;;;9.00;99.90;;;;;;5036930;28;20141;-54
2022/12/29 05:30:04;;;;;;;24.25;4.95;;;9.00;99.90;;;;;;5048694;28;20052;-54
2022/12/29 05:32:31;;;;;;;27.40;4.45;;;9.00;99.90;;;;;;5047614;28;20045;-51
2022/12/29 05:34:58;;;;;;;32.35;5.65;;;9.00;99.90;;;;;;5031599;28;20049;-50
2022/12/29 05:37:25;;;;;;;24.52;5.22;;;8.90;99.90;;;;;;5043276;28;20439;-53
2022/12/29 05:39:52;;;;;;;26.05;5.55;;;8.90;99.90;;;;;;5041207;28;20047;-52
2022/12/29 05:42:19;;;;;;;26.95;4.97;;;8.90;99.90;;;;;;5050871;28;20048;-53
2022/12/29 05:45:07;;;;;;;25.60;4.07;;;8.90;99.90;;;;;;5051216;28;20472;-52
2022/12/29 05:47:52;;;;;;;;;;;8.90;99.90;;;;;;5052598;28;20064;-53
2022/12/29 05:50:48;;;;;;;18.88;3.50;;;8.90;99.90;;;;;;5029505;28;19921;-51
2022/12/29 05:53:17;;;;;;;19.52;3.60;;;8.90;99.90;;;;;;5039954;28;20133;-54
2022/12/29 05:55:45;;;;;;;24.40;4.97;;;8.90;99.90;;;;;;5027760;28;20041;-51
2022/12/29 05:58:15;;;;;;;23.00;5.07;;;8.90;99.90;;;;;;5049133;28;20094;-52
2022/12/29 06:00:42;;;;;;;18.05;3.20;;;8.90;99.90;;;;;;5044745;28;20388;-54
2022/12/29 06:03:10;;;;;;;17.40;3.75;;;9.00;99.90;;;;;;5041469;28;20067;-54
2022/12/29 06:05:37;;;;;;;19.10;3.55;;;9.00;99.90;;;;;;5045963;28;20041;-52
2022/12/29 06:08:04;;;;;;;18.25;3.58;;;9.00;99.90;;;;;;5040561;28;20033;-52
2022/12/29 06:10:30;;;;;;;19.13;3.60;;;9.00;99.90;;;;;;5046572;28;20045;-54
2022/12/29 06:13:03;;;;;;;15.73;3.25;;;9.10;99.90;;;;;;5046918;28;20107;-51
2022/12/29 06:15:31;;;;;;;15.25;3.30;;;9.10;99.90;;;;;;5045599;28;20132;-54
2022/12/29 06:17:59;;;;;;;16.35;3.35;;;9.10;99.90;;;;;;5044793;28;20087;-53
2022/12/29 06:20:26;;;;;;;17.25;2.90;;;9.10;99.90;;;;;;5039263;28;20047;-51
2022/12/29 06:22:53;;;;;;;15.63;2.58;;;9.00;99.90;;;;;;5047139;28;20053;-52
2022/12/29 06:25:19;;;;;;;12.05;2.30;;;9.00;99.90;;;;;;5042792;28;20041;-54
2022/12/29 06:27:47;;;;;;;11.98;2.28;;;8.90;99.90;;;;;;5040587;28;20112;-52
2022/12/29 06:30:14;;;;;;;17.73;2.83;;;8.90;99.90;;;;;;5044691;28;20400;-55
2022/12/29 06:32:42;;;;;;;12.88;2.90;;;8.90;99.90;;;;;;5039990;28;20075;-51
2022/12/29 06:35:11;;;;;;;10.75;2.47;;;8.80;99.90;;;;;;5042397;28;20362;-52
2022/12/29 06:37:43;;;;;;;8.90;2.35;;;8.80;99.90;;;;;;5041400;28;20496;-49
2022/12/29 06:40:11;;;;;;;10.05;2.30;;;8.80;99.90;;;;;;5036099;28;20049;-54
2022/12/29 06:42:58;;;;;;;9.57;1.98;;;8.70;99.90;;;;;;5037681;28;20045;-47
2022/12/29 06:45:43;;;;;;;13.38;2.72;;;8.70;99.90;;;;;;5036713;28;20068;-50
2022/12/29 06:48:10;;;;;;;9.15;1.73;;;8.70;99.90;;;;;;5044954;28;20033;-55
2022/12/29 06:50:37;;;;;;;13.20;2.50;;;8.60;99.90;;;;;;5041448;28;20492;-53
2022/12/29 06:53:03;;;;;;;8.93;1.58;;;8.60;99.90;;;;;;5039073;28;20116;-49
2022/12/29 06:55:30;;;;;;;9.23;2.00;;;8.60;99.90;;;;;;5045657;28;20115;-47
2022/12/29 06:57:57;;;;;;;7.90;1.30;;;8.50;99.90;;;;;;5042269;28;20435;-52
2022/12/29 07:00:24;;;;;;;5.95;1.70;;;8.50;99.90;;;;;;5040387;28;20049;-51
2022/12/29 07:02:50;;;;;;;7.63;1.80;;;8.50;99.90;;;;;;5038498;28;20064;-52
2022/12/29 07:05:17;;;;;;;7.30;1.30;;;8.40;99.90;;;;;;5038022;28;20090;-54
2022/12/29 07:07:44;;;;;;;6.82;1.77;;;8.40;99.90;;;;;;5043808;28;20037;-53
2022/12/29 07:10:11;;;;;;;7.68;1.33;;;8.30;99.90;;;;;;5043526;28;20494;-54
2022/12/29 07:12:38;;;;;;;9.10;2.28;;;8.30;99.90;;;;;;5039774;28;20081;-53
2022/12/29 07:15:04;;;;;;;8.73;1.45;;;8.30;99.90;;;;;;5043630;28;20049;-48
2022/12/29 07:17:31;;;;;;;6.75;1.27;;;8.30;99.90;;;;;;5042396;28;20404;-50
2022/12/29 07:19:58;;;;;;;7.78;1.52;;;8.20;99.90;;;;;;5037480;28;20132;-51
2022/12/29 07:22:25;;;;;;;10.10;1.70;;;8.20;99.90;;;;;;5038228;28;20050;-55
2022/12/29 07:24:51;;;;;;;9.20;1.23;;;8.20;99.90;;;;;;5034721;28;20492;-50
2022/12/29 07:27:18;;;;;;;11.23;1.70;;;8.20;99.90;;;;;;5049840;28;20439;-54
2022/12/29 07:29:45;;;;;;;6.97;1.25;;;8.20;99.90;;;;;;5053606;28;20049;-54
2022/12/29 07:32:12;;;;;;;8.13;1.52;;;8.10;99.90;;;;;;5050172;28;20044;-54
2022/12/29 07:34:39;;;;;;;7.75;1.30;;;8.10;99.90;;;;;;5053831;28;20049;-50
2022/12/29 07:37:06;;;;;;;7.43;1.60;;;8.10;99.90;;;;;;5053148;28;20484;-49
2022/12/29 07:39:33;;;;;;;4.10;1.13;;;8.10;99.90;;;;;;5034461;28;20107;-50
2022/12/29 07:42:01;;;;;;;8.82;1.65;;;8.00;99.90;;;;;;5034679;28;20054;-53
2022/12/29 07:44:38;;;;;;;10.25;1.27;;;8.00;99.90;;;;;;5033089;28;20048;-55
2022/12/29 07:47:15;;;;;;;7.18;1.17;;;8.00;99.90;;;;;;5034177;28;20046;-49
2022/12/29 07:49:42;;;;;;;6.95;1.45;;;8.00;99.90;;;;;;5042063;28;20038;-50
2022/12/29 07:52:09;;;;;;;3.08;1.02;;;8.00;99.90;;;;;;5036733;28;20096;-51
2022/12/29 07:54:35;;;;;;;10.23;1.83;;;8.00;99.90;;;;;;5042481;28;20509;-50
2022/12/29 07:57:02;;;;;;;5.18;1.10;;;8.00;99.90;;;;;;5042133;28;20041;-52
2022/12/29 07:59:30;;;;;;;10.35;2.25;;;8.00;99.90;;;;;;5032095;28;20461;-48
2022/12/29 08:01:57;;;;;;;9.52;1.23;;;8.00;99.90;;;;;;5038645;28;20041;-52
2022/12/29 08:04:24;;;;;;;6.78;1.38;;;7.90;99.90;;;;;;5038158;28;20037;-50
2022/12/29 08:06:50;;;;;;;9.00;1.70;;;7.90;99.90;;;;;;5039067;28;20099;-54
2022/12/29 08:09:17;;;;;;;5.70;1.38;;;7.90;99.90;;;;;;5041872;28;20041;-49
2022/12/29 08:11:50;;;;;;;8.93;1.27;;;7.90;99.90;;;;;;5045423;28;20404;-55
2022/12/29 08:14:19;;;;;;;7.78;1.35;;;7.90;99.90;;;;;;5041364;28;20037;-54
2022/12/29 08:16:46;;;;;;;6.65;1.30;;;7.90;99.90;;;;;;5040006;28;20083;-51
2022/12/29 08:19:13;;;;;;;7.28;2.10;;;7.90;99.90;;;;;;5041061;28;20136;-53
2022/12/29 08:21:39;;;;;;;10.35;1.33;;;7.90;99.90;;;;;;5044398;28;20546;-55
2022/12/29 08:24:06;;;;;;;6.20;1.20;;;7.90;99.90;;;;;;5034463;28;20380;-54
2022/12/29 08:26:33;;;;;;;6.95;1.20;;;7.90;99.90;;;;;;5040115;28;20099;-54
2022/12/29 08:28:59;;;;;;;6.93;1.10;;;7.90;99.90;;;;;;5033808;28;20068;-49
2022/12/29 08:31:26;;;;;;;5.75;1.10;;;7.80;99.90;;;;;;5042078;28;20095;-51
2022/12/29 08:33:53;;;;;;;6.10;1.00;;;7.90;99.90;;;;;;5035279;28;20090;-52
2022/12/29 08:36:20;;;;;;;7.20;1.02;;;7.80;99.90;;;;;;5042278;28;20032;-52
2022/12/29 08:38:47;;;;;;;5.97;1.10;;;7.80;99.90;;;;;;5041502;28;20037;-54
2022/12/29 08:41:13;;;;;;;10.90;1.23;;;7.80;99.90;;;;;;5035488;28;20048;-50
2022/12/29 08:43:40;;;;;;;6.07;1.13;;;7.80;99.90;;;;;;5036177;28;20045;-53
2022/12/29 08:46:07;;;;;;;10.55;1.42;;;7.80;99.90;;;;;;5036776;28;20482;-54
2022/12/29 08:48:34;;;;;;;10.10;1.92;;;7.80;99.90;;;;;;5041905;28;20033;-54
2022/12/29 08:51:01;;;;;;;7.07;1.70;;;7.80;99.90;;;;;;5042141;28;20051;-55
2022/12/29 08:53:27;;;;;;;6.90;1.40;;;7.80;99.90;;;;;;5041417;28;20037;-53
2022/12/29 08:55:54;;;;;;;5.75;1.35;;;7.90;99.90;;;;;;5035835;28;20053;-53
2022/12/29 08:58:30;;;;;;;7.07;1.60;;;7.90;99.90;;;;;;5034393;28;20053;-51
2022/12/29 09:00:57;;;;;;;5.22;1.00;;;7.90;99.90;;;;;;5047253;28;20040;-53
2022/12/29 09:03:24;;;;;;;9.60;1.30;;;7.90;99.90;;;;;;5043333;28;20041;-51
2022/12/29 09:06:11;;;;;;;7.40;1.52;;;7.90;99.90;;;;;;5043852;28;20137;-52
2022/12/29 09:08:37;;;;;;;7.43;1.38;;;8.00;99.90;;;;;;5046617;28;20041;-53
2022/12/29 09:11:04;;;;;;;8.10;1.88;;;8.00;99.90;;;;;;5043507;28;20110;-50
2022/12/29 09:13:31;;;;;;;6.93;1.10;;;8.00;99.90;;;;;;5037878;28;20057;-51
2022/12/29 09:15:58;;;;;;;9.77;1.63;;;8.00;99.90;;;;;;5045909;28;20642;-53
2022/12/29 09:18:24;;;;;;;6.63;1.15;;;8.10;99.90;;;;;;5051783;28;20051;-55
2022/12/29 09:20:51;;;;;;;8.63;1.50;;;8.10;99.90;;;;;;5052090;28;20119;-53
2022/12/29 09:23:18;;;;;;;9.25;1.67;;;8.10;99.90;;;;;;5044830;28;20394;-51
2022/12/29 09:25:45;;;;;;;7.53;1.60;;;8.10;99.90;;;;;;5048201;28;20068;-54
2022/12/29 09:28:11;;;;;;;7.95;1.40;;;8.10;99.90;;;;;;5052996;28;20095;-55
2022/12/29 09:30:39;;;;;;;7.78;1.30;;;8.10;99.90;;;;;;5055899;28;20040;-55
2022/12/29 09:33:05;;;;;;;7.50;1.50;;;8.10;99.90;;;;;;5040531;28;20072;-54
2022/12/29 09:35:32;;;;;;;8.30;1.45;;;8.10;99.90;;;;;;5036664;28;20049;-53
2022/12/29 09:37:59;;;;;;;5.93;1.40;;;8.10;99.90;;;;;;5051326;28;20037;-50
2022/12/29 09:40:26;;;;;;;7.32;1.52;;;8.10;99.90;;;;;;5053847;28;20472;-51
2022/12/29 09:42:52;;;;;;;10.15;1.73;;;8.10;99.90;;;;;;5040121;28;20459;-53
2022/12/29 09:45:19;;;;;;;14.65;2.72;;;8.10;99.90;;;;;;5055642;28;20048;-51
2022/12/29 09:47:46;;;;;;;16.25;3.47;;;8.10;99.90;;;;;;5055068;28;20048;-50
2022/12/29 09:50:13;;;;;;;7.45;1.63;;;8.20;99.90;;;;;;5055513;28;20071;-53
2022/12/29 09:52:39;;;;;;;10.25;1.70;;;8.30;99.90;;;;;;5049657;28;20068;-50
2022/12/29 09:55:06;;;;;;;12.18;1.85;;;8.30;99.90;;;;;;5054568;28;20422;-56
2022/12/29 09:57:39;;;;;;;5.68;1.40;;;8.40;99.90;;;;;;5054672;28;20134;-48
2022/12/29 10:00:06;;;;;;;7.55;1.15;;;8.50;99.90;;;;;;5052680;28;20053;-47
2022/12/29 10:02:38;;;;;;;10.45;1.90;;;8.50;99.90;;;;;;5052961;28;20072;-48
2022/12/29 10:05:04;;;;;;;8.60;1.77;;;8.50;99.90;;;;;;5044178;28;20029;-59
2022/12/29 10:07:31;;;;;;;5.60;1.50;;;8.50;99.90;;;;;;5044475;28;20095;-52
2022/12/29 10:10:01;;;;;;;8.15;1.65;;;8.50;99.90;;;;;;5050862;28;20119;-54
2022/12/29 10:12:27;;;;;;;6.85;1.52;;;8.60;99.90;;;;;;5050833;28;20110;-53
2022/12/29 10:14:54;;;;;;;10.27;1.55;;;8.70;99.90;;;;;;5054564;28;20055;-56
2022/12/29 10:17:21;;;;;;;8.20;1.88;;;8.80;99.90;;;;;;5055127;28;20142;-53
2022/12/29 10:19:48;;;;;;;4.32;1.38;;;8.80;99.90;;;;;;5055194;28;20111;-49
2022/12/29 10:22:14;;;;;;;8.38;1.80;;;8.90;99.90;;;;;;5049103;28;20047;-53
2022/12/29 10:24:41;;;;;;;9.27;1.63;;;8.90;99.90;;;;;;5054780;28;20510;-50
2022/12/29 10:27:08;;;;;;;5.47;1.30;;;9.00;99.90;;;;;;5054948;28;20036;-51
2022/12/29 10:29:34;;;;;;;7.55;2.03;;;9.00;99.90;;;;;;5054422;28;20080;-53
2022/12/29 10:32:01;;;;;;;5.22;1.20;;;9.00;99.90;;;;;;5054720;28;20050;-52
2022/12/29 10:34:28;;;;;;;7.22;1.45;;;8.90;99.90;;;;;;5054959;28;20048;-55
2022/12/29 10:36:56;;;;;;;9.80;1.77;;;8.90;99.90;;;;;;5053824;28;20041;-54
2022/12/29 10:39:23;;;;;;;6.45;1.90;;;8.90;99.90;;;;;;5054518;28;20052;-49
2022/12/29 10:41:50;;;;;;;4.95;1.20;;;8.90;99.90;;;;;;5054993;28;20045;-55
2022/12/29 10:44:16;;;;;;;5.65;1.92;;;8.90;99.90;;;;;;5053901;28;20037;-52
2022/12/29 10:46:44;;;;;;;4.53;1.35;;;9.00;99.90;;;;;;5053231;28;20136;-53
2022/12/29 10:49:10;;;;;;;4.88;1.63;;;9.00;99.90;;;;;;5053297;28;20048;-54
2022/12/29 10:51:43;;;;;;;3.22;1.00;;;9.00;99.90;;;;;;5054553;28;20045;-55
2022/12/29 10:54:10;;;;;;;4.70;0.93;;;9.00;99.90;;;;;;5051568;28;20069;-51
2022/12/29 10:56:37;;;;;;;7.47;1.33;;;9.00;99.90;;;;;;5044487;28;20040;-51
2022/12/29 10:59:03;;;;;;;4.95;1.27;;;9.00;99.90;;;;;;5044939;28;20049;-48
2022/12/29 11:01:30;;;;;;;6.60;1.52;;;9.10;99.90;;;;;;5043217;28;20045;-54
2022/12/29 11:03:59;;;;;;;7.32;1.45;;;9.10;99.90;;;;;;5044114;28;20123;-48
2022/12/29 11:06:25;;;;;;;3.95;1.60;;;9.10;99.90;;;;;;5043466;28;20044;-51
2022/12/29 11:08:52;;;;;;;5.00;1.17;;;9.10;99.90;;;;;;5042788;28;20048;-53
2022/12/29 11:11:19;;;;;;;6.95;1.58;;;9.00;99.90;;;;;;5040461;28;20489;-52
2022/12/29 11:13:46;;;;;;;5.28;1.10;;;9.00;99.90;;;;;;5044830;28;20044;-52
2022/12/29 11:16:13;;;;;;;6.78;1.30;;;9.00;99.90;;;;;;5043481;28;20047;-53
2022/12/29 11:18:39;;;;;;;5.07;1.30;;;8.90;99.90;;;;;;5044893;28;20135;-50
2022/12/29 11:21:06;;;;;;;4.40;1.30;;;8.90;99.90;;;;;;5040308;28;20053;-51
2022/12/29 11:23:33;;;;;;;5.70;1.60;;;8.90;99.90;;;;;;5034672;28;20053;-52
2022/12/29 11:26:00;;;;;;;5.28;1.27;;;8.90;99.90;;;;;;5042352;28;20454;-52
2022/12/29 11:28:30;;;;;;;7.82;1.50;;;8.90;99.90;;;;;;5053977;28;20049;-48
2022/12/29 11:30:57;;;;;;;6.22;1.60;;;8.90;99.90;;;;;;5053368;28;20422;-49
2022/12/29 11:33:23;;;;;;;8.70;1.60;;;8.90;99.90;;;;;;5053732;28;20037;-49
2022/12/29 11:35:50;;;;;;;5.50;1.25;;;9.00;99.90;;;;;;5053490;28;20049;-50
2022/12/29 11:38:17;;;;;;;5.43;1.55;;;9.00;99.90;;;;;;5053690;28;20404;-54
2022/12/29 11:40:43;;;;;;;5.65;1.30;;;9.00;99.90;;;;;;5053661;28;20052;-52
2022/12/29 11:43:10;;;;;;;8.18;1.50;;;9.00;99.90;;;;;;5052782;28;20102;-53
2022/12/29 11:45:37;;;;;;;7.78;1.85;;;9.00;99.90;;;;;;5053288;28;20044;-47
2022/12/29 11:48:04;;;;;;;9.07;1.83;;;9.00;99.90;;;;;;5036154;28;20520;-50
2022/12/29 11:50:31;;;;;;;6.20;1.80;;;9.00;99.90;;;;;;5044717;28;20041;-51
2022/12/29 11:52:57;;;;;;;8.35;1.80;;;9.00;99.90;;;;;;5049292;28;20088;-51
2022/12/29 11:55:24;;;;;;;5.75;1.50;;;9.10;99.90;;;;;;5038563;28;20053;-50
2022/12/29 11:57:51;;;;;;;8.05;2.30;;;9.10;99.90;;;;;;5044718;28;20045;-56
2022/12/29 12:00:19;;;;;;;9.23;2.17;;;9.10;99.90;;;;;;5052155;28;20111;-53
2022/12/29 12:02:45;;;;;;;8.13;2.30;;;9.20;99.90;;;;;;5040456;28;20060;-55
2022/12/29 12:05:12;;;;;;;9.68;2.03;;;9.20;99.90;;;;;;5046873;28;20068;-55
2022/12/29 12:07:39;;;;;;;11.40;2.30;;;9.20;99.90;;;;;;5035170;28;20037;-47
2022/12/29 12:10:07;;;;;;;11.35;2.53;;;9.20;99.90;;;;;;5052788;28;20033;-52
2022/12/29 12:12:34;;;;;;;10.75;2.90;;;9.20;99.90;;;;;;5051492;28;20520;-57
2022/12/29 12:15:02;;;;;;;9.68;2.92;;;9.10;99.90;;;;;;5040320;28;20049;-56
2022/12/29 12:17:49;;;;;;;13.07;2.95;;;9.10;99.90;;;;;;5036067;28;20037;-56
2022/12/29 12:20:16;;;;;;;14.07;3.40;;;9.10;99.90;;;;;;5046644;28;20392;-51
2022/12/29 12:22:42;;;;;;;12.90;3.42;;;9.10;99.90;;;;;;5051137;28;20072;-51
2022/12/29 12:25:09;;;;;;;12.50;3.30;;;9.10;99.90;;;;;;5052969;28;20045;-49
2022/12/29 12:27:39;;;;;;;16.45;4.47;;;9.10;99.90;;;;;;5033258;28;20052;-48
2022/12/29 12:30:07;;;;;;;13.82;3.63;;;9.10;99.90;;;;;;5037376;28;20033;-49
2022/12/29 12:32:34;;;;;;;14.90;3.42;;;9.10;99.90;;;;;;5042435;28;20043;-50
2022/12/29 12:35:01;;;;;;;11.48;2.92;;;9.10;99.90;;;;;;5040873;28;20083;-49
2022/12/29 12:37:27;;;;;;;18.80;3.80;;;9.10;99.90;;;;;;5043683;28;20480;-48
2022/12/29 12:39:54;;;;;;;16.15;2.78;;;9.10;99.90;;;;;;5043388;28;20099;-51
2022/12/29 12:42:21;;;;;;;14.98;2.95;;;9.10;99.90;;;;;;5034006;28;20056;-52
2022/12/29 12:44:48;;;;;;;12.65;2.65;;;9.20;99.90;;;;;;5034322;28;20117;-52
2022/12/29 12:47:14;;;;;;;11.18;2.47;;;9.20;99.90;;;;;;5036179;28;20033;-52
2022/12/29 12:49:41;;;;;;;11.50;2.10;;;9.20;99.90;;;;;;5033094;28;20485;-52
2022/12/29 12:52:08;;;;;;;10.52;2.40;;;9.20;99.90;;;;;;5042759;28;20442;-53
2022/12/29 12:54:35;;;;;;;10.52;2.42;;;9.10;99.90;;;;;;5034624;28;20033;-49
2022/12/29 12:57:02;;;;;;;9.95;2.10;;;9.10;99.90;;;;;;5039743;28;20057;-51
2022/12/29 12:59:28;;;;;;;9.60;2.45;;;9.10;99.90;;;;;;5045255;28;20489;-48
2022/12/29 13:01:55;;;;;;;16.05;2.95;;;9.10;99.90;;;;;;5043628;28;20045;-54
2022/12/29 13:04:22;;;;;;;14.68;3.22;;;9.10;99.90;;;;;;5049756;28;20041;-51
2022/12/29 13:06:49;;;;;;;13.02;2.85;;;9.20;99.90;;;;;;5046901;28;20087;-52
2022/12/29 13:09:15;;;;;;;13.75;2.55;;;9.20;99.90;;;;;;5050541;28;20491;-49
2022/12/29 13:11:42;;;;;;;12.18;2.75;;;9.20;99.90;;;;;;5042264;28;20107;-50
2022/12/29 13:14:09;;;;;;;13.48;2.67;;;9.20;99.90;;;;;;5044253;28;20042;-52
2022/12/29 13:16:36;;;;;;;14.27;2.70;;;9.30;99.90;;;;;;5046021;28;20427;-48
2022/12/29 13:19:03;;;;;;;11.98;2.50;;;9.30;99.90;;;;;;5042426;28;20041;-50
2022/12/29 13:21:29;;;;;;;16.55;3.45;;;9.30;99.90;;;;;;5045937;28;20135;-51
2022/12/29 13:23:56;;;;;;;12.13;3.20;;;9.30;99.90;;;;;;5048073;28;20098;-49
2022/12/29 13:26:23;;;;;;;12.80;3.88;;;9.40;99.90;;;;;;5048434;28;20029;-53
2022/12/29 13:28:50;;;;;;;13.88;2.45;;;9.40;99.90;;;;;;5045396;28;20037;-50